Terminal Aerodrome Forecast
Issued by NWS

Home | Current Version | Previous Version | Text Only | Print | Product List | Glossary Off
Versions: 1 2 3 4 5 6 7 8 9 10 11 12 13 14 15 16 17

000
FTUS43 KMPX 210520
TAFRWF
TAF
KRWF 210520Z 2106/2206 13005KT P6SM SCT250
     FM211200 14009KT P6SM SCT040 BKN120
      TEMPO 2114/2117 5SM -TSRA BKN040CB OVC100
     FM211800 15009KT P6SM BKN040 OVC100=

USA.gov is the U.S. government's official web portal to all federal, state and local government web resources and services.